createdAt,value
2023-01-01T00:02:36.956Z,100.00
2023-01-01T00:05:11.539Z,100.00
2023-01-01T00:07:52.410Z,100.00
2023-01-01T00:10:25.936Z,100.00
2023-01-01T00:12:59.622Z,100.00
2023-01-01T00:15:40.452Z,100.00
2023-01-01T00:18:14.219Z,100.00
2023-01-01T00:20:51.080Z,100.00
2023-01-01T00:23:27.559Z,100.00
2023-01-01T00:26:21.320Z,100.00
2023-01-01T00:29:02.053Z,100.00
2023-01-01T00:31:36.541Z,100.00
2023-01-01T00:34:10.101Z,100.00
2023-01-01T00:36:44.496Z,100.00
2023-01-01T00:39:21.256Z,100.00
2023-01-01T00:41:54.886Z,100.00
2023-01-01T00:44:31.568Z,100.00
2023-01-01T00:47:10.929Z,100.00
2023-01-01T00:49:48.068Z,100.00
2023-01-01T00:52:24.584Z,100.00
2023-01-01T00:55:03.191Z,100.00
2023-01-01T00:57:39.625Z,100.00
2023-01-01T01:00:16.242Z,100.00
2023-01-01T01:02:49.453Z,100.00
2023-01-01T01:05:28.326Z,100.00
2023-01-01T01:08:06.177Z,100.00
2023-01-01T01:10:39.161Z,100.00
2023-01-01T01:13:20.241Z,100.00
2023-01-01T01:15:57.076Z,100.00
2023-01-01T01:18:30.523Z,100.00
2023-01-01T01:21:05.334Z,100.00
2023-01-01T01:23:38.610Z,100.00
2023-01-01T01:26:18.083Z,100.00
2023-01-01T01:28:58.205Z,100.00
2023-01-01T01:31:35.185Z,100.00
2023-01-01T01:34:15.310Z,100.00
2023-01-01T01:36:52.061Z,100.00
2023-01-01T01:39:31.576Z,100.00
2023-01-01T01:42:11.499Z,100.00
2023-01-01T01:45:07.431Z,100.00
2023-01-01T01:47:57.056Z,100.00
2023-01-01T01:50:36.869Z,100.00
2023-01-01T01:53:23.107Z,100.00
2023-01-01T01:56:03.108Z,100.00
2023-01-01T01:58:42.112Z,100.00
2023-01-01T02:01:17.904Z,100.00
2023-01-01T02:03:58.932Z,100.00
2023-01-01T02:06:38.734Z,100.00
2023-01-01T02:09:16.166Z,100.00
2023-01-01T02:11:52.848Z,100.00
2023-01-01T02:14:29.042Z,100.00
2023-01-01T02:17:16.518Z,100.00
2023-01-01T02:20:10.072Z,100.00
2023-01-01T02:23:07.425Z,100.00
2023-01-01T02:25:43.670Z,100.00
2023-01-01T02:28:35.454Z,100.00
2023-01-01T02:31:23.034Z,100.00
2023-01-01T02:34:05.287Z,100.00
2023-01-01T02:36:42.536Z,100.00
2023-01-01T02:39:29.315Z,100.00
2023-01-01T02:42:06.697Z,100.00
2023-01-01T02:44:47.965Z,100.00
2023-01-01T02:47:24.424Z,100.00
2023-01-01T02:50:05.815Z,100.00
2023-01-01T02:52:45.206Z,100.00
2023-01-01T02:55:29.146Z,100.00
2023-01-01T02:58:23.720Z,100.00
2023-01-01T03:01:20.320Z,100.00
2023-01-01T03:04:17.057Z,100.00
2023-01-01T03:06:50.199Z,100.00
2023-01-01T03:09:41.461Z,100.00
2023-01-01T03:12:20.928Z,100.00
2023-01-01T03:15:05.257Z,100.00
2023-01-01T03:17:43.837Z,100.00
2023-01-01T03:20:24.814Z,100.00
2023-01-01T03:23:02.281Z,100.00
2023-01-01T03:25:41.584Z,100.00
2023-01-01T03:28:21.448Z,100.00
2023-01-01T03:31:02.341Z,100.00
2023-01-01T03:33:48.578Z,100.00
2023-01-01T03:36:28.899Z,100.00
2023-01-01T03:39:25.312Z,100.00
2023-01-01T03:42:20.346Z,100.00
2023-01-01T03:45:05.847Z,100.00
2023-01-01T03:47:41.949Z,100.00
2023-01-01T03:50:16.121Z,100.00
2023-01-01T03:52:56.469Z,100.00
2023-01-01T03:55:35.546Z,100.00
2023-01-01T03:58:30.612Z,100.00
2023-01-01T04:01:06.980Z,100.00
2023-01-01T04:03:41.174Z,100.00
2023-01-01T04:06:15.199Z,100.00
2023-01-01T04:08:53.701Z,100.00
2023-01-01T04:11:34.634Z,100.00
2023-01-01T04:14:12.268Z,100.00
2023-01-01T04:16:45.043Z,100.00
2023-01-01T04:19:31.793Z,100.00
2023-01-01T04:22:13.009Z,100.00
2023-01-01T04:24:54.689Z,100.00
2023-01-01T04:27:34.080Z,100.00
2023-01-01T04:30:15.116Z,100.00
2023-01-01T04:32:58.117Z,100.00
2023-01-01T04:35:38.400Z,100.00
2023-01-01T04:38:18.397Z,100.00
2023-01-01T04:41:01.540Z,100.00
2023-01-01T04:43:35.467Z,100.00
2023-01-01T04:46:26.516Z,100.00
2023-01-01T04:49:01.791Z,100.00
2023-01-01T04:51:34.693Z,100.00
2023-01-01T04:54:07.768Z,100.00
2023-01-01T04:56:49.579Z,100.00
2023-01-01T04:59:24.040Z,100.00
2023-01-01T05:02:00.948Z,100.00
2023-01-01T05:04:35.394Z,100.00
2023-01-01T05:07:16.483Z,100.00
2023-01-01T05:09:55.197Z,91.34
2023-01-01T05:12:36.069Z,82.79
2023-01-01T05:15:14.234Z,94.21
2023-01-01T05:17:50.596Z,99.24
2023-01-01T05:20:30.835Z,100.00
2023-01-01T05:23:19.419Z,100.00
2023-01-01T05:25:59.345Z,100.00
2023-01-01T05:28:32.052Z,100.00
2023-01-01T05:31:14.421Z,100.00
2023-01-01T05:33:50.447Z,100.00
2023-01-01T05:36:26.387Z,100.00
2023-01-01T05:38:59.441Z,100.00
2023-01-01T05:41:38.996Z,100.00
2023-01-01T05:44:15.368Z,100.00
2023-01-01T05:46:51.562Z,100.00
2023-01-01T05:49:31.026Z,100.00
2023-01-01T05:52:08.776Z,100.00
2023-01-01T05:54:50.053Z,100.00
2023-01-01T05:57:30.152Z,100.00
2023-01-01T06:00:09.434Z,100.00
2023-01-01T06:02:46.234Z,100.00
2023-01-01T06:05:19.032Z,100.00
2023-01-01T06:07:56.537Z,100.00
2023-01-01T06:10:32.384Z,100.00
2023-01-01T06:13:13.540Z,100.00
2023-01-01T06:15:52.892Z,100.00
2023-01-01T06:18:29.576Z,100.00
2023-01-01T06:21:12.111Z,100.00
2023-01-01T06:23:51.960Z,100.00
2023-01-01T06:26:28.935Z,100.00
2023-01-01T06:29:13.637Z,100.00
2023-01-01T06:31:53.885Z,100.00
2023-01-01T06:34:32.262Z,100.00
2023-01-01T06:37:11.870Z,100.00
2023-01-01T06:39:46.503Z,100.00
2023-01-01T06:42:29.064Z,100.00
2023-01-01T06:45:06.776Z,100.00
2023-01-01T06:47:39.728Z,100.00
2023-01-01T06:50:13.109Z,100.00
2023-01-01T06:52:48.386Z,100.00
2023-01-01T06:55:21.144Z,100.00
2023-01-01T06:57:53.824Z,100.00
2023-01-01T07:00:27.983Z,100.00
2023-01-01T07:03:00.923Z,100.00
2023-01-01T07:05:33.981Z,100.00
2023-01-01T07:08:20.644Z,100.00
2023-01-01T07:10:54.037Z,100.00
2023-01-01T07:13:30.793Z,100.00
2023-01-01T07:16:12.338Z,100.00
2023-01-01T07:18:46.194Z,100.00
2023-01-01T07:21:30.137Z,100.00
2023-01-01T07:24:06.785Z,100.00
2023-01-01T07:26:41.434Z,99.98
2023-01-01T07:29:17.987Z,99.10
2023-01-01T07:31:50.915Z,100.00
2023-01-01T07:34:24.085Z,100.00
2023-01-01T07:37:00.164Z,100.00
2023-01-01T07:39:33.986Z,100.00
2023-01-01T07:42:11.078Z,100.00
2023-01-01T07:44:47.360Z,98.45
2023-01-01T07:47:22.259Z,97.71
2023-01-01T07:50:04.172Z,100.00
2023-01-01T07:52:43.558Z,93.08
2023-01-01T07:55:21.435Z,88.93
2023-01-01T07:58:00.440Z,88.10
2023-01-01T08:00:36.938Z,91.02
2023-01-01T08:03:12.736Z,95.86
2023-01-01T08:05:49.004Z,78.65
2023-01-01T08:08:25.474Z,82.38
2023-01-01T08:11:04.219Z,91.49
2023-01-01T08:13:40.073Z,87.50
2023-01-01T08:16:17.460Z,89.20
2023-01-01T08:18:56.027Z,90.99
2023-01-01T08:21:30.431Z,86.90
2023-01-01T08:24:03.942Z,83.47
2023-01-01T08:26:37.536Z,84.03
2023-01-01T08:29:14.516Z,86.31
2023-01-01T08:31:50.911Z,81.72
2023-01-01T08:34:29.066Z,78.49
2023-01-01T08:37:02.033Z,75.37
2023-01-01T08:39:36.255Z,77.90
2023-01-01T08:42:12.364Z,72.75
2023-01-01T08:44:51.429Z,73.24
2023-01-01T08:47:26.397Z,74.30
2023-01-01T08:50:01.628Z,75.80
2023-01-01T08:52:43.538Z,74.30
2023-01-01T08:55:17.192Z,75.86
2023-01-01T08:57:50.353Z,78.30
2023-01-01T09:00:23.305Z,78.59
2023-01-01T09:02:57.368Z,83.08
2023-01-01T09:05:37.844Z,73.90
2023-01-01T09:08:17.450Z,73.96
2023-01-01T09:10:51.267Z,78.80
2023-01-01T09:13:30.791Z,77.87
2023-01-01T09:16:04.774Z,79.54
2023-01-01T09:18:40.923Z,80.44
2023-01-01T09:21:22.780Z,83.95
2023-01-01T09:23:56.370Z,81.78
2023-01-01T09:26:34.788Z,84.74
2023-01-01T09:29:08.167Z,82.77
2023-01-01T09:31:44.941Z,83.54
2023-01-01T09:34:18.353Z,83.65
2023-01-01T09:36:51.442Z,82.17
2023-01-01T09:39:27.472Z,83.74
2023-01-01T09:42:18.646Z,83.69
2023-01-01T09:45:10.643Z,82.51
2023-01-01T09:47:48.841Z,86.03
2023-01-01T09:50:26.031Z,84.55
2023-01-01T09:53:08.108Z,82.92
2023-01-01T09:55:56.541Z,81.09
2023-01-01T09:58:33.942Z,82.50
2023-01-01T10:01:16.864Z,84.55
2023-01-01T10:03:53.409Z,82.84
2023-01-01T10:06:34.452Z,82.22
2023-01-01T10:09:10.629Z,82.21
2023-01-01T10:11:58.654Z,83.44
2023-01-01T10:15:00.574Z,82.38
2023-01-01T10:17:40.373Z,80.91
2023-01-01T10:20:26.187Z,82.15
2023-01-01T10:23:10.538Z,80.65
2023-01-01T10:25:46.561Z,81.07
2023-01-01T10:28:29.023Z,80.52
2023-01-01T10:31:16.165Z,80.02
2023-01-01T10:33:52.032Z,79.70
2023-01-01T10:36:26.665Z,78.70
2023-01-01T10:39:00.894Z,78.48
2023-01-01T10:41:33.820Z,79.14
2023-01-01T10:44:10.171Z,77.86
2023-01-01T10:46:49.814Z,76.43
2023-01-01T10:49:22.756Z,77.49
2023-01-01T10:51:55.677Z,75.75
2023-01-01T10:54:37.073Z,78.32
2023-01-01T10:57:14.196Z,76.13
2023-01-01T10:59:53.999Z,74.27
2023-01-01T11:02:28.260Z,73.85
2023-01-01T11:05:19.284Z,73.73
2023-01-01T11:07:57.629Z,75.57
2023-01-01T11:10:30.703Z,75.55
2023-01-01T11:13:12.780Z,74.59
2023-01-01T11:15:46.236Z,73.75
2023-01-01T11:18:32.195Z,74.03
2023-01-01T11:21:08.987Z,73.48
2023-01-01T11:23:45.460Z,74.86
2023-01-01T11:26:19.893Z,72.78
2023-01-01T11:29:18.866Z,73.68
2023-01-01T11:31:58.001Z,73.88
2023-01-01T11:34:39.369Z,72.33
2023-01-01T11:37:33.231Z,71.22
2023-01-01T11:40:15.031Z,71.49
2023-01-01T11:42:58.780Z,71.64
2023-01-01T11:45:38.043Z,70.97
2023-01-01T11:48:23.644Z,70.63
2023-01-01T11:51:16.966Z,71.45
2023-01-01T11:53:50.403Z,71.31
2023-01-01T11:56:27.163Z,70.27
2023-01-01T11:59:04.292Z,69.55
2023-01-01T12:01:37.280Z,69.54
2023-01-01T12:04:14.000Z,68.49
2023-01-01T12:07:23.012Z,69.21
2023-01-01T12:10:03.261Z,67.40
2023-01-01T12:12:42.522Z,67.76
2023-01-01T12:15:20.987Z,65.67
2023-01-01T12:18:00.096Z,64.08
2023-01-01T12:20:43.674Z,62.35
2023-01-01T12:23:17.081Z,64.06
2023-01-01T12:25:58.971Z,65.95
2023-01-01T12:28:35.899Z,69.46
2023-01-01T12:31:27.777Z,71.27
2023-01-01T12:34:18.241Z,71.62
2023-01-01T12:37:13.001Z,72.59
2023-01-01T12:40:08.803Z,72.56
2023-01-01T12:43:00.456Z,74.08
2023-01-01T12:45:41.739Z,74.93
2023-01-01T12:48:27.815Z,75.27
2023-01-01T12:51:13.326Z,76.04
2023-01-01T12:54:04.483Z,76.12
2023-01-01T12:57:07.381Z,75.38
2023-01-01T12:59:44.119Z,73.78
2023-01-01T13:02:22.901Z,70.83
2023-01-01T13:05:07.060Z,68.83
2023-01-01T13:07:48.408Z,69.66
2023-01-01T13:10:30.485Z,73.08
2023-01-01T13:13:07.309Z,72.28
2023-01-01T13:15:43.512Z,71.40
2023-01-01T13:18:30.698Z,71.18
2023-01-01T13:21:11.513Z,72.84
2023-01-01T13:23:47.714Z,71.80
2023-01-01T13:26:26.892Z,70.49
2023-01-01T13:29:00.081Z,73.50
2023-01-01T13:31:40.399Z,75.25
2023-01-01T13:34:35.469Z,74.90
2023-01-01T13:37:13.501Z,75.74
2023-01-01T13:39:56.866Z,80.36
2023-01-01T13:42:52.739Z,77.41
2023-01-01T13:48:48.838Z,78.89
2023-01-01T13:52:04.619Z,79.68
2023-01-01T13:54:57.891Z,79.88
2023-01-01T13:57:43.163Z,80.00
2023-01-01T14:00:32.884Z,81.03
2023-01-01T14:03:15.290Z,81.18
2023-01-01T14:05:51.448Z,80.63
2023-01-01T14:08:32.215Z,81.42
2023-01-01T14:11:23.510Z,81.73
2023-01-01T14:13:59.788Z,81.86
2023-01-01T14:16:39.282Z,81.57
2023-01-01T14:19:16.500Z,82.96
2023-01-01T14:21:56.238Z,83.22
2023-01-01T14:24:33.440Z,82.89
2023-01-01T14:27:07.184Z,83.38
2023-01-01T14:29:44.758Z,83.17
2023-01-01T14:32:26.350Z,83.65
2023-01-01T14:35:00.770Z,84.18
2023-01-01T14:37:37.328Z,84.60
2023-01-01T14:40:24.665Z,85.52
2023-01-01T14:43:09.616Z,85.53
2023-01-01T14:45:46.608Z,85.95
2023-01-01T14:48:22.344Z,86.74
2023-01-01T14:50:56.127Z,87.33
2023-01-01T14:53:35.285Z,87.14
2023-01-01T14:56:08.605Z,87.33
2023-01-01T14:58:42.425Z,87.40
2023-01-01T15:01:16.984Z,87.89
2023-01-01T15:03:56.927Z,88.41
2023-01-01T15:06:30.403Z,88.43
2023-01-01T15:09:06.669Z,89.07
2023-01-01T15:11:43.352Z,89.88
2023-01-01T15:14:37.034Z,90.27
2023-01-01T15:17:14.396Z,90.69
2023-01-01T15:20:07.827Z,90.92
2023-01-01T15:22:44.426Z,91.72
2023-01-01T15:25:21.944Z,91.81
2023-01-01T15:28:01.587Z,92.27
2023-01-01T15:30:37.989Z,92.28
2023-01-01T15:33:16.061Z,93.18
2023-01-01T15:35:54.136Z,93.76
2023-01-01T15:38:29.624Z,94.81
2023-01-01T15:41:40.665Z,95.41
2023-01-01T15:44:25.169Z,96.29
2023-01-01T15:47:08.281Z,96.38
2023-01-01T15:49:49.666Z,95.75
2023-01-01T15:52:27.384Z,96.22
2023-01-01T15:55:00.818Z,96.34
2023-01-01T15:57:40.428Z,96.59
2023-01-01T16:00:24.312Z,96.43
2023-01-01T16:03:07.097Z,96.36
2023-01-01T16:05:53.405Z,97.06
2023-01-01T16:08:28.793Z,98.12
2023-01-01T16:11:02.342Z,97.56
2023-01-01T16:13:38.138Z,97.62
2023-01-01T16:16:33.188Z,98.08
2023-01-01T16:19:15.679Z,97.62
2023-01-01T16:21:52.791Z,98.17
2023-01-01T16:24:37.532Z,100.00
2023-01-01T16:27:10.519Z,100.00
2023-01-01T16:29:54.342Z,95.65
2023-01-01T16:32:28.357Z,94.67
2023-01-01T16:35:11.696Z,92.05
2023-01-01T16:37:51.111Z,84.31
2023-01-01T16:40:26.895Z,92.76
2023-01-01T16:43:00.434Z,98.78
2023-01-01T16:45:42.713Z,90.48
2023-01-01T16:48:19.254Z,92.15
2023-01-01T16:51:04.717Z,93.21
2023-01-01T16:53:48.543Z,95.82
2023-01-01T16:56:25.328Z,95.79
2023-01-01T16:59:04.101Z,98.11
2023-01-01T17:01:44.128Z,99.69
2023-01-01T17:04:22.046Z,99.84
2023-01-01T17:06:58.083Z,99.27
2023-01-01T17:09:34.707Z,100.00
2023-01-01T17:12:18.421Z,100.00
2023-01-01T17:14:55.343Z,100.00
2023-01-01T17:17:30.800Z,100.00
2023-01-01T17:20:09.972Z,100.00
2023-01-01T17:22:43.158Z,100.00
2023-01-01T17:25:17.092Z,100.00
2023-01-01T17:27:58.559Z,100.00
2023-01-01T17:30:34.830Z,100.00
2023-01-01T17:33:08.226Z,100.00
2023-01-01T17:35:48.174Z,100.00
2023-01-01T17:38:20.971Z,100.00
2023-01-01T17:41:06.096Z,100.00
2023-01-01T17:43:49.776Z,100.00
2023-01-01T17:46:31.384Z,100.00
2023-01-01T17:49:10.318Z,100.00
2023-01-01T17:51:53.159Z,100.00
2023-01-01T17:54:32.479Z,100.00
2023-01-01T17:57:09.991Z,100.00
2023-01-01T17:59:46.260Z,100.00
2023-01-01T18:02:19.698Z,100.00
2023-01-01T18:04:52.571Z,100.00
2023-01-01T18:07:25.469Z,100.00
2023-01-01T18:09:58.739Z,100.00
2023-01-01T18:12:42.922Z,100.00
2023-01-01T18:15:25.175Z,100.00
2023-01-01T18:17:58.179Z,100.00
2023-01-01T18:20:31.315Z,100.00
2023-01-01T18:23:06.674Z,100.00
2023-01-01T18:25:43.263Z,100.00
2023-01-01T18:28:16.516Z,100.00
2023-01-01T18:30:49.786Z,100.00
2023-01-01T18:33:25.360Z,100.00
2023-01-01T18:36:02.030Z,100.00
2023-01-01T18:38:35.957Z,100.00
2023-01-01T18:41:23.677Z,100.00
2023-01-01T18:43:58.048Z,100.00
2023-01-01T18:46:35.546Z,100.00
2023-01-01T18:49:16.586Z,100.00
2023-01-01T18:51:51.478Z,100.00
2023-01-01T18:54:32.004Z,100.00
2023-01-01T18:57:29.219Z,100.00
2023-01-01T19:00:25.908Z,100.00
2023-01-01T19:03:00.505Z,100.00
2023-01-01T19:05:35.889Z,100.00
2023-01-01T19:08:16.461Z,100.00
2023-01-01T19:10:57.074Z,100.00
2023-01-01T19:13:34.950Z,100.00
2023-01-01T19:16:10.595Z,100.00
2023-01-01T19:18:44.714Z,100.00
2023-01-01T19:21:24.831Z,100.00
2023-01-01T19:24:01.525Z,100.00
2023-01-01T19:26:39.346Z,100.00
2023-01-01T19:29:19.931Z,100.00
2023-01-01T19:32:01.475Z,100.00
2023-01-01T19:34:38.021Z,100.00
2023-01-01T19:37:17.670Z,100.00
2023-01-01T19:39:53.703Z,100.00
2023-01-01T19:42:37.747Z,100.00
2023-01-01T19:45:11.248Z,100.00
2023-01-01T19:47:52.404Z,100.00
2023-01-01T19:50:25.979Z,100.00
2023-01-01T19:53:01.282Z,100.00
2023-01-01T19:55:37.618Z,100.00
2023-01-01T19:58:13.345Z,100.00
2023-01-01T20:00:50.226Z,100.00
2023-01-01T20:06:29.092Z,100.00
2023-01-01T20:09:03.910Z,100.00
2023-01-01T20:11:42.599Z,100.00
2023-01-01T20:14:21.936Z,100.00
2023-01-01T20:16:58.582Z,100.00
2023-01-01T20:19:31.934Z,100.00
2023-01-01T20:22:11.581Z,100.00
2023-01-01T20:24:58.703Z,100.00
2023-01-01T20:27:34.892Z,100.00
2023-01-01T20:30:13.823Z,100.00
2023-01-01T20:32:52.817Z,100.00
2023-01-01T20:35:26.035Z,100.00
2023-01-01T20:38:02.308Z,100.00
2023-01-01T20:40:40.380Z,100.00
2023-01-01T20:43:16.624Z,100.00
2023-01-01T20:45:55.401Z,100.00
2023-01-01T20:48:34.608Z,100.00
2023-01-01T20:51:13.112Z,100.00
2023-01-01T20:53:51.818Z,100.00
2023-01-01T20:56:35.608Z,100.00
2023-01-01T20:59:33.535Z,100.00
2023-01-01T21:02:01.359Z,100.00
2023-01-01T21:04:40.896Z,100.00
2023-01-01T21:07:13.703Z,100.00
2023-01-01T21:09:56.509Z,100.00
2023-01-01T21:12:33.362Z,100.00
2023-01-01T21:15:15.329Z,100.00
2023-01-01T21:17:51.421Z,100.00
2023-01-01T21:20:30.286Z,100.00
2023-01-01T21:23:07.134Z,100.00
2023-01-01T21:25:50.868Z,100.00
2023-01-01T21:28:33.628Z,100.00
2023-01-01T21:31:10.638Z,100.00
2023-01-01T21:33:46.985Z,100.00
2023-01-01T21:36:27.257Z,100.00
2023-01-01T21:39:04.914Z,100.00
2023-01-01T21:41:37.859Z,100.00
2023-01-01T21:44:17.359Z,100.00
2023-01-01T21:47:01.985Z,100.00
2023-01-01T21:49:36.039Z,100.00
2023-01-01T21:52:18.507Z,100.00
2023-01-01T21:54:55.955Z,100.00
2023-01-01T21:57:32.403Z,100.00
2023-01-01T22:00:07.050Z,100.00
2023-01-01T22:02:47.897Z,100.00
2023-01-01T22:05:35.127Z,100.00
2023-01-01T22:08:24.583Z,100.00
2023-01-01T22:10:58.304Z,100.00
2023-01-01T22:13:35.204Z,100.00
2023-01-01T22:16:11.674Z,100.00
2023-01-01T22:18:44.496Z,100.00
2023-01-01T22:21:21.357Z,100.00
2023-01-01T22:23:59.388Z,100.00
2023-01-01T22:26:32.426Z,100.00
2023-01-01T22:29:17.227Z,100.00
2023-01-01T22:31:54.751Z,100.00
2023-01-01T22:34:30.778Z,100.00
2023-01-01T22:37:12.891Z,100.00
2023-01-01T22:39:46.731Z,100.00
2023-01-01T22:42:39.297Z,100.00
2023-01-01T22:45:30.169Z,100.00
2023-01-01T22:48:33.293Z,100.00
2023-01-01T22:51:22.756Z,100.00
2023-01-01T22:54:08.024Z,100.00
2023-01-01T22:56:53.441Z,100.00
2023-01-01T22:59:42.174Z,100.00
2023-01-01T23:02:30.819Z,100.00
2023-01-01T23:05:15.792Z,100.00
2023-01-01T23:08:03.418Z,100.00
2023-01-01T23:10:48.522Z,100.00
2023-01-01T23:13:37.393Z,100.00
2023-01-01T23:16:25.687Z,100.00
2023-01-01T23:19:14.234Z,100.00
2023-01-01T23:22:03.318Z,100.00
2023-01-01T23:24:51.727Z,100.00
2023-01-01T23:27:37.153Z,100.00
2023-01-01T23:30:28.676Z,100.00
2023-01-01T23:33:17.065Z,100.00
2023-01-01T23:36:07.821Z,100.00
2023-01-01T23:38:58.695Z,100.00
2023-01-01T23:41:47.064Z,100.00
2023-01-01T23:44:39.167Z,100.00
2023-01-01T23:47:26.834Z,100.00
2023-01-01T23:50:11.845Z,100.00
2023-01-01T23:52:57.844Z,100.00
2023-01-01T23:55:46.391Z,100.00
2023-01-01T23:58:34.734Z,100.00
